sensor_id;sensor_type;location;lat;lon;timestamp;P1;durP1;ratioP1;P2;durP2;ratioP2
29200;SDS011;16244;51.956;12.980;2024-02-21T00:00:07;7.53;;;1.63;;
29200;SDS011;16244;51.956;12.980;2024-02-21T00:02:37;2.63;;;1.10;;
29200;SDS011;16244;51.956;12.980;2024-02-21T00:05:04;7.47;;;1.63;;
29200;SDS011;16244;51.956;12.980;2024-02-21T00:07:33;2.07;;;1.20;;
29200;SDS011;16244;51.956;12.980;2024-02-21T00:10:01;5.10;;;1.37;;
29200;SDS011;16244;51.956;12.980;2024-02-21T00:12:29;4.00;;;1.57;;
29200;SDS011;16244;51.956;12.980;2024-02-21T00:14:57;5.83;;;1.40;;
29200;SDS011;16244;51.956;12.980;2024-02-21T00:17:24;15.03;;;1.63;;
29200;SDS011;16244;51.956;12.980;2024-02-21T00:19:52;7.20;;;2.20;;
29200;SDS011;16244;51.956;12.980;2024-02-21T00:22:20;6.17;;;1.63;;
29200;SDS011;16244;51.956;12.980;2024-02-21T00:24:48;3.57;;;1.80;;
29200;SDS011;16244;51.956;12.980;2024-02-21T00:27:16;4.73;;;1.67;;
29200;SDS011;16244;51.956;12.980;2024-02-21T00:29:43;5.50;;;2.30;;
29200;SDS011;16244;51.956;12.980;2024-02-21T00:32:11;3.23;;;1.63;;
29200;SDS011;16244;51.956;12.980;2024-02-21T00:34:38;4.20;;;1.23;;
29200;SDS011;16244;51.956;12.980;2024-02-21T00:37:06;3.13;;;0.90;;
29200;SDS011;16244;51.956;12.980;2024-02-21T00:39:34;9.40;;;1.90;;
29200;SDS011;16244;51.956;12.980;2024-02-21T00:42:03;2.93;;;1.50;;
29200;SDS011;16244;51.956;12.980;2024-02-21T00:44:31;7.17;;;1.90;;
29200;SDS011;16244;51.956;12.980;2024-02-21T00:46:58;14.13;;;1.90;;
29200;SDS011;16244;51.956;12.980;2024-02-21T00:49:26;5.40;;;1.80;;
29200;SDS011;16244;51.956;12.980;2024-02-21T00:51:53;3.00;;;1.60;;
29200;SDS011;16244;51.956;12.980;2024-02-21T00:54:21;10.30;;;1.40;;
29200;SDS011;16244;51.956;12.980;2024-02-21T00:56:49;8.47;;;1.83;;
29200;SDS011;16244;51.956;12.980;2024-02-21T00:59:18;8.37;;;1.50;;
29200;SDS011;16244;51.956;12.980;2024-02-21T01:01:46;3.50;;;1.27;;
29200;SDS011;16244;51.956;12.980;2024-02-21T01:04:14;5.43;;;1.40;;
29200;SDS011;16244;51.956;12.980;2024-02-21T01:06:41;8.43;;;1.40;;
29200;SDS011;16244;51.956;12.980;2024-02-21T01:09:10;3.80;;;1.33;;
29200;SDS011;16244;51.956;12.980;2024-02-21T01:11:38;4.90;;;1.40;;
29200;SDS011;16244;51.956;12.980;2024-02-21T01:14:05;5.93;;;1.53;;
29200;SDS011;16244;51.956;12.980;2024-02-21T01:16:34;3.13;;;1.40;;
29200;SDS011;16244;51.956;12.980;2024-02-21T01:19:02;2.90;;;1.77;;
29200;SDS011;16244;51.956;12.980;2024-02-21T01:21:29;12.70;;;1.90;;
29200;SDS011;16244;51.956;12.980;2024-02-21T01:23:56;3.40;;;1.40;;
29200;SDS011;16244;51.956;12.980;2024-02-21T01:26:24;4.40;;;1.40;;
29200;SDS011;16244;51.956;12.980;2024-02-21T01:28:51;4.07;;;1.67;;
29200;SDS011;16244;51.956;12.980;2024-02-21T01:31:19;8.93;;;2.60;;
29200;SDS011;16244;51.956;12.980;2024-02-21T01:33:48;2.37;;;1.53;;
29200;SDS011;16244;51.956;12.980;2024-02-21T01:36:15;15.50;;;2.70;;
29200;SDS011;16244;51.956;12.980;2024-02-21T01:38:44;7.53;;;2.00;;
29200;SDS011;16244;51.956;12.980;2024-02-21T01:41:11;4.77;;;1.70;;
29200;SDS011;16244;51.956;12.980;2024-02-21T01:43:39;2.07;;;1.43;;
29200;SDS011;16244;51.956;12.980;2024-02-21T01:46:06;4.13;;;1.60;;
29200;SDS011;16244;51.956;12.980;2024-02-21T01:48:33;9.23;;;2.03;;
29200;SDS011;16244;51.956;12.980;2024-02-21T01:51:03;6.77;;;2.07;;
29200;SDS011;16244;51.956;12.980;2024-02-21T01:53:32;3.80;;;1.70;;
29200;SDS011;16244;51.956;12.980;2024-02-21T01:56:03;3.53;;;1.80;;
29200;SDS011;16244;51.956;12.980;2024-02-21T01:58:32;7.13;;;1.33;;
29200;SDS011;16244;51.956;12.980;2024-02-21T02:01:03;5.00;;;1.50;;
29200;SDS011;16244;51.956;12.980;2024-02-21T02:03:30;4.10;;;2.57;;
29200;SDS011;16244;51.956;12.980;2024-02-21T02:05:58;4.97;;;1.70;;
29200;SDS011;16244;51.956;12.980;2024-02-21T02:08:27;3.73;;;1.57;;
29200;SDS011;16244;51.956;12.980;2024-02-21T02:10:55;15.33;;;2.50;;
29200;SDS011;16244;51.956;12.980;2024-02-21T02:13:23;2.80;;;1.40;;
29200;SDS011;16244;51.956;12.980;2024-02-21T02:15:50;4.83;;;1.90;;
29200;SDS011;16244;51.956;12.980;2024-02-21T02:18:19;2.07;;;1.10;;
29200;SDS011;16244;51.956;12.980;2024-02-21T02:20:47;6.60;;;2.07;;
29200;SDS011;16244;51.956;12.980;2024-02-21T02:23:19;4.37;;;2.33;;
29200;SDS011;16244;51.956;12.980;2024-02-21T02:25:48;8.90;;;2.33;;
29200;SDS011;16244;51.956;12.980;2024-02-21T02:28:18;4.00;;;1.70;;
29200;SDS011;16244;51.956;12.980;2024-02-21T02:30:46;1.77;;;1.70;;
29200;SDS011;16244;51.956;12.980;2024-02-21T02:33:14;6.30;;;1.90;;
29200;SDS011;16244;51.956;12.980;2024-02-21T02:35:43;12.87;;;2.10;;
29200;SDS011;16244;51.956;12.980;2024-02-21T02:38:11;8.33;;;2.50;;
29200;SDS011;16244;51.956;12.980;2024-02-21T02:40:40;9.97;;;1.50;;
29200;SDS011;16244;51.956;12.980;2024-02-21T02:43:08;13.77;;;3.07;;
29200;SDS011;16244;51.956;12.980;2024-02-21T02:45:35;5.03;;;1.70;;
29200;SDS011;16244;51.956;12.980;2024-02-21T02:48:03;5.03;;;1.83;;
29200;SDS011;16244;51.956;12.980;2024-02-21T02:50:31;5.47;;;2.17;;
29200;SDS011;16244;51.956;12.980;2024-02-21T02:52:58;6.43;;;2.20;;
29200;SDS011;16244;51.956;12.980;2024-02-21T02:55:26;9.17;;;2.10;;
29200;SDS011;16244;51.956;12.980;2024-02-21T02:57:55;2.37;;;1.50;;
29200;SDS011;16244;51.956;12.980;2024-02-21T03:00:22;11.10;;;2.33;;
29200;SDS011;16244;51.956;12.980;2024-02-21T03:02:50;3.50;;;1.83;;
29200;SDS011;16244;51.956;12.980;2024-02-21T03:05:18;6.80;;;2.37;;
29200;SDS011;16244;51.956;12.980;2024-02-21T03:07:46;7.13;;;1.90;;
29200;SDS011;16244;51.956;12.980;2024-02-21T03:10:14;1.73;;;1.63;;
29200;SDS011;16244;51.956;12.980;2024-02-21T03:12:43;7.30;;;2.50;;
29200;SDS011;16244;51.956;12.980;2024-02-21T03:15:12;2.60;;;1.63;;
29200;SDS011;16244;51.956;12.980;2024-02-21T03:17:40;1.53;;;1.47;;
29200;SDS011;16244;51.956;12.980;2024-02-21T03:20:08;8.57;;;2.27;;
29200;SDS011;16244;51.956;12.980;2024-02-21T03:22:36;10.70;;;2.00;;
29200;SDS011;16244;51.956;12.980;2024-02-21T03:25:04;10.60;;;2.20;;
29200;SDS011;16244;51.956;12.980;2024-02-21T03:27:32;14.77;;;3.03;;
29200;SDS011;16244;51.956;12.980;2024-02-21T03:29:59;3.13;;;1.83;;
29200;SDS011;16244;51.956;12.980;2024-02-21T03:32:29;4.33;;;1.60;;
29200;SDS011;16244;51.956;12.980;2024-02-21T03:34:56;2.50;;;1.90;;
29200;SDS011;16244;51.956;12.980;2024-02-21T03:37:24;3.37;;;2.17;;
29200;SDS011;16244;51.956;12.980;2024-02-21T03:39:51;5.40;;;2.30;;
29200;SDS011;16244;51.956;12.980;2024-02-21T03:42:19;3.50;;;1.83;;
29200;SDS011;16244;51.956;12.980;2024-02-21T03:44:46;4.50;;;2.70;;
29200;SDS011;16244;51.956;12.980;2024-02-21T03:47:13;5.47;;;2.63;;
29200;SDS011;16244;51.956;12.980;2024-02-21T03:49:42;3.87;;;1.50;;
29200;SDS011;16244;51.956;12.980;2024-02-21T03:52:10;8.80;;;2.33;;
29200;SDS011;16244;51.956;12.980;2024-02-21T03:54:37;6.13;;;2.23;;
29200;SDS011;16244;51.956;12.980;2024-02-21T03:57:05;4.83;;;2.20;;
29200;SDS011;16244;51.956;12.980;2024-02-21T03:59:32;4.57;;;1.63;;
29200;SDS011;16244;51.956;12.980;2024-02-21T04:02:00;6.50;;;1.80;;
29200;SDS011;16244;51.956;12.980;2024-02-21T04:04:29;6.40;;;1.97;;
29200;SDS011;16244;51.956;12.980;2024-02-21T04:06:58;5.20;;;1.93;;
29200;SDS011;16244;51.956;12.980;2024-02-21T04:09:26;2.10;;;1.60;;
29200;SDS011;16244;51.956;12.980;2024-02-21T04:11:53;5.43;;;2.03;;
29200;SDS011;16244;51.956;12.980;2024-02-21T04:14:21;10.70;;;2.47;;
29200;SDS011;16244;51.956;12.980;2024-02-21T04:16:48;4.00;;;1.90;;
29200;SDS011;16244;51.956;12.980;2024-02-21T04:19:16;6.77;;;2.40;;
29200;SDS011;16244;51.956;12.980;2024-02-21T04:21:43;2.33;;;1.80;;
29200;SDS011;16244;51.956;12.980;2024-02-21T04:24:12;6.70;;;1.93;;
29200;SDS011;16244;51.956;12.980;2024-02-21T04:26:40;4.83;;;1.90;;
29200;SDS011;16244;51.956;12.980;2024-02-21T04:29:07;4.60;;;1.87;;
29200;SDS011;16244;51.956;12.980;2024-02-21T04:31:34;5.10;;;1.90;;
29200;SDS011;16244;51.956;12.980;2024-02-21T04:34:02;4.30;;;2.10;;
29200;SDS011;16244;51.956;12.980;2024-02-21T04:36:29;3.70;;;2.50;;
29200;SDS011;16244;51.956;12.980;2024-02-21T04:38:57;3.00;;;2.37;;
29200;SDS011;16244;51.956;12.980;2024-02-21T04:41:25;4.33;;;2.47;;
29200;SDS011;16244;51.956;12.980;2024-02-21T04:43:53;6.53;;;2.50;;
29200;SDS011;16244;51.956;12.980;2024-02-21T04:46:20;2.43;;;2.00;;
29200;SDS011;16244;51.956;12.980;2024-02-21T04:48:48;19.73;;;2.67;;
29200;SDS011;16244;51.956;12.980;2024-02-21T04:51:15;6.23;;;2.60;;
29200;SDS011;16244;51.956;12.980;2024-02-21T04:53:43;7.87;;;2.30;;
29200;SDS011;16244;51.956;12.980;2024-02-21T04:56:10;9.93;;;2.37;;
29200;SDS011;16244;51.956;12.980;2024-02-21T04:58:39;4.43;;;2.40;;
29200;SDS011;16244;51.956;12.980;2024-02-21T05:01:06;16.43;;;2.97;;
29200;SDS011;16244;51.956;12.980;2024-02-21T05:03:34;11.83;;;2.57;;
29200;SDS011;16244;51.956;12.980;2024-02-21T05:06:02;9.73;;;1.90;;
29200;SDS011;16244;51.956;12.980;2024-02-21T05:08:29;6.03;;;2.30;;
29200;SDS011;16244;51.956;12.980;2024-02-21T05:10:57;4.70;;;2.33;;
29200;SDS011;16244;51.956;12.980;2024-02-21T05:13:24;4.20;;;2.60;;
29200;SDS011;16244;51.956;12.980;2024-02-21T05:15:54;7.77;;;2.77;;
29200;SDS011;16244;51.956;12.980;2024-02-21T05:18:22;5.63;;;2.80;;
29200;SDS011;16244;51.956;12.980;2024-02-21T05:20:49;17.17;;;5.90;;
29200;SDS011;16244;51.956;12.980;2024-02-21T05:23:16;26.43;;;10.17;;
29200;SDS011;16244;51.956;12.980;2024-02-21T05:25:44;23.13;;;8.60;;
29200;SDS011;16244;51.956;12.980;2024-02-21T05:28:11;12.03;;;3.77;;
29200;SDS011;16244;51.956;12.980;2024-02-21T05:30:39;8.80;;;3.40;;
29200;SDS011;16244;51.956;12.980;2024-02-21T05:33:08;7.80;;;2.80;;
29200;SDS011;16244;51.956;12.980;2024-02-21T05:35:36;4.60;;;2.30;;
29200;SDS011;16244;51.956;12.980;2024-02-21T05:38:04;5.60;;;2.80;;
29200;SDS011;16244;51.956;12.980;2024-02-21T05:40:37;2.80;;;2.13;;
29200;SDS011;16244;51.956;12.980;2024-02-21T05:43:04;6.67;;;2.70;;
29200;SDS011;16244;51.956;12.980;2024-02-21T05:45:32;9.60;;;3.17;;
29200;SDS011;16244;51.956;12.980;2024-02-21T05:47:59;5.63;;;2.67;;
29200;SDS011;16244;51.956;12.980;2024-02-21T05:50:29;5.17;;;2.50;;
29200;SDS011;16244;51.956;12.980;2024-02-21T05:52:58;16.17;;;3.93;;
29200;SDS011;16244;51.956;12.980;2024-02-21T05:55:25;6.00;;;2.30;;
29200;SDS011;16244;51.956;12.980;2024-02-21T05:57:53;5.63;;;3.07;;
29200;SDS011;16244;51.956;12.980;2024-02-21T06:00:21;4.67;;;2.23;;
29200;SDS011;16244;51.956;12.980;2024-02-21T06:02:49;11.13;;;3.37;;
29200;SDS011;16244;51.956;12.980;2024-02-21T06:05:16;8.93;;;3.03;;
29200;SDS011;16244;51.956;12.980;2024-02-21T06:07:45;8.87;;;2.47;;
29200;SDS011;16244;51.956;12.980;2024-02-21T06:10:13;6.17;;;2.57;;
29200;SDS011;16244;51.956;12.980;2024-02-21T06:12:40;4.77;;;2.80;;
29200;SDS011;16244;51.956;12.980;2024-02-21T06:15:08;6.07;;;2.93;;
29200;SDS011;16244;51.956;12.980;2024-02-21T06:17:36;12.10;;;3.07;;
29200;SDS011;16244;51.956;12.980;2024-02-21T06:20:03;3.83;;;2.57;;
29200;SDS011;16244;51.956;12.980;2024-02-21T06:22:32;8.53;;;2.40;;
29200;SDS011;16244;51.956;12.980;2024-02-21T06:25:01;15.03;;;2.90;;
29200;SDS011;16244;51.956;12.980;2024-02-21T06:27:29;3.43;;;2.33;;
29200;SDS011;16244;51.956;12.980;2024-02-21T06:29:56;8.63;;;2.63;;
29200;SDS011;16244;51.956;12.980;2024-02-21T06:32:24;6.00;;;2.47;;
29200;SDS011;16244;51.956;12.980;2024-02-21T06:34:51;8.60;;;2.50;;
29200;SDS011;16244;51.956;12.980;2024-02-21T06:37:18;4.50;;;2.43;;
29200;SDS011;16244;51.956;12.980;2024-02-21T06:39:46;8.00;;;2.33;;
29200;SDS011;16244;51.956;12.980;2024-02-21T06:42:15;5.30;;;2.37;;
29200;SDS011;16244;51.956;12.980;2024-02-21T06:44:43;5.40;;;3.07;;
29200;SDS011;16244;51.956;12.980;2024-02-21T06:47:11;4.53;;;2.10;;
29200;SDS011;16244;51.956;12.980;2024-02-21T06:49:38;5.50;;;2.83;;
29200;SDS011;16244;51.956;12.980;2024-02-21T06:52:06;3.33;;;3.00;;
29200;SDS011;16244;51.956;12.980;2024-02-21T06:54:34;8.53;;;3.40;;
29200;SDS011;16244;51.956;12.980;2024-02-21T06:57:01;7.27;;;3.07;;
29200;SDS011;16244;51.956;12.980;2024-02-21T06:59:30;19.40;;;8.90;;
29200;SDS011;16244;51.956;12.980;2024-02-21T07:01:57;7.80;;;2.87;;
29200;SDS011;16244;51.956;12.980;2024-02-21T07:04:26;3.23;;;2.93;;
29200;SDS011;16244;51.956;12.980;2024-02-21T07:06:55;12.53;;;2.67;;
29200;SDS011;16244;51.956;12.980;2024-02-21T07:09:22;4.60;;;3.00;;
29200;SDS011;16244;51.956;12.980;2024-02-21T07:11:50;7.33;;;3.30;;
29200;SDS011;16244;51.956;12.980;2024-02-21T07:14:17;5.07;;;2.40;;
29200;SDS011;16244;51.956;12.980;2024-02-21T07:16:47;5.03;;;2.70;;
29200;SDS011;16244;51.956;12.980;2024-02-21T07:19:14;10.10;;;2.57;;
29200;SDS011;16244;51.956;12.980;2024-02-21T07:21:42;11.87;;;2.60;;
29200;SDS011;16244;51.956;12.980;2024-02-21T07:24:10;5.93;;;2.50;;
29200;SDS011;16244;51.956;12.980;2024-02-21T07:26:40;3.97;;;3.03;;
29200;SDS011;16244;51.956;12.980;2024-02-21T07:29:08;6.23;;;2.53;;
29200;SDS011;16244;51.956;12.980;2024-02-21T07:31:40;6.97;;;2.57;;
29200;SDS011;16244;51.956;12.980;2024-02-21T07:34:09;7.20;;;2.60;;
29200;SDS011;16244;51.956;12.980;2024-02-21T07:36:37;10.13;;;2.70;;
29200;SDS011;16244;51.956;12.980;2024-02-21T07:39:05;3.57;;;2.50;;
29200;SDS011;16244;51.956;12.980;2024-02-21T07:41:32;7.30;;;2.80;;
29200;SDS011;16244;51.956;12.980;2024-02-21T07:44:00;6.33;;;3.07;;
29200;SDS011;16244;51.956;12.980;2024-02-21T07:46:29;6.87;;;3.20;;
29200;SDS011;16244;51.956;12.980;2024-02-21T07:48:57;4.87;;;3.10;;
29200;SDS011;16244;51.956;12.980;2024-02-21T07:51:28;4.20;;;2.83;;
29200;SDS011;16244;51.956;12.980;2024-02-21T07:53:56;8.20;;;4.13;;
29200;SDS011;16244;51.956;12.980;2024-02-21T07:56:27;7.90;;;3.30;;
29200;SDS011;16244;51.956;12.980;2024-02-21T07:58:54;6.73;;;3.53;;
29200;SDS011;16244;51.956;12.980;2024-02-21T08:01:22;8.77;;;3.70;;
29200;SDS011;16244;51.956;12.980;2024-02-21T08:03:49;6.20;;;3.57;;
29200;SDS011;16244;51.956;12.980;2024-02-21T08:06:17;3.57;;;3.07;;
29200;SDS011;16244;51.956;12.980;2024-02-21T08:08:46;6.77;;;3.60;;
29200;SDS011;16244;51.956;12.980;2024-02-21T08:11:13;3.73;;;3.30;;
29200;SDS011;16244;51.956;12.980;2024-02-21T08:13:41;7.03;;;3.30;;
29200;SDS011;16244;51.956;12.980;2024-02-21T08:16:08;10.67;;;4.07;;
29200;SDS011;16244;51.956;12.980;2024-02-21T08:18:36;3.60;;;3.30;;
29200;SDS011;16244;51.956;12.980;2024-02-21T08:21:04;9.57;;;3.97;;
29200;SDS011;16244;51.956;12.980;2024-02-21T08:23:32;6.93;;;3.43;;
29200;SDS011;16244;51.956;12.980;2024-02-21T08:26:04;7.73;;;3.67;;
29200;SDS011;16244;51.956;12.980;2024-02-21T08:28:32;6.60;;;2.30;;
29200;SDS011;16244;51.956;12.980;2024-02-21T08:30:59;8.73;;;2.20;;
29200;SDS011;16244;51.956;12.980;2024-02-21T08:33:27;5.67;;;3.37;;
29200;SDS011;16244;51.956;12.980;2024-02-21T08:35:55;6.83;;;4.20;;
29200;SDS011;16244;51.956;12.980;2024-02-21T08:38:23;10.23;;;3.73;;
29200;SDS011;16244;51.956;12.980;2024-02-21T08:40:51;7.73;;;3.10;;
29200;SDS011;16244;51.956;12.980;2024-02-21T08:43:20;7.97;;;4.00;;
29200;SDS011;16244;51.956;12.980;2024-02-21T08:45:48;8.10;;;3.40;;
29200;SDS011;16244;51.956;12.980;2024-02-21T08:48:15;5.40;;;3.00;;
29200;SDS011;16244;51.956;12.980;2024-02-21T08:50:43;6.70;;;2.50;;
29200;SDS011;16244;51.956;12.980;2024-02-21T08:53:10;4.20;;;3.20;;
29200;SDS011;16244;51.956;12.980;2024-02-21T08:55:39;5.60;;;2.43;;
29200;SDS011;16244;51.956;12.980;2024-02-21T08:58:07;6.27;;;2.90;;
29200;SDS011;16244;51.956;12.980;2024-02-21T09:00:36;10.23;;;3.57;;
29200;SDS011;16244;51.956;12.980;2024-02-21T09:03:03;10.63;;;3.80;;
29200;SDS011;16244;51.956;12.980;2024-02-21T09:05:31;9.50;;;3.80;;
29200;SDS011;16244;51.956;12.980;2024-02-21T09:08:00;4.50;;;2.53;;
29200;SDS011;16244;51.956;12.980;2024-02-21T09:10:28;17.73;;;4.23;;
29200;SDS011;16244;51.956;12.980;2024-02-21T09:12:56;7.03;;;4.00;;
29200;SDS011;16244;51.956;12.980;2024-02-21T09:15:24;4.00;;;3.70;;
29200;SDS011;16244;51.956;12.980;2024-02-21T09:17:54;5.00;;;3.60;;
29200;SDS011;16244;51.956;12.980;2024-02-21T09:20:21;7.70;;;3.67;;
29200;SDS011;16244;51.956;12.980;2024-02-21T09:22:49;7.40;;;3.57;;
29200;SDS011;16244;51.956;12.980;2024-02-21T09:25:18;5.33;;;3.50;;
29200;SDS011;16244;51.956;12.980;2024-02-21T09:27:46;4.10;;;2.90;;
29200;SDS011;16244;51.956;12.980;2024-02-21T09:30:13;8.93;;;3.17;;
29200;SDS011;16244;51.956;12.980;2024-02-21T09:32:42;4.83;;;3.67;;
29200;SDS011;16244;51.956;12.980;2024-02-21T09:35:14;6.00;;;4.10;;
29200;SDS011;16244;51.956;12.980;2024-02-21T09:37:44;4.30;;;3.50;;
29200;SDS011;16244;51.956;12.980;2024-02-21T09:40:12;3.23;;;2.93;;
29200;SDS011;16244;51.956;12.980;2024-02-21T09:42:43;6.93;;;3.97;;
29200;SDS011;16244;51.956;12.980;2024-02-21T09:45:15;5.10;;;3.00;;
29200;SDS011;16244;51.956;12.980;2024-02-21T09:47:50;7.40;;;3.47;;
29200;SDS011;16244;51.956;12.980;2024-02-21T09:50:27;5.50;;;2.87;;
29200;SDS011;16244;51.956;12.980;2024-02-21T09:52:57;3.83;;;3.53;;
29200;SDS011;16244;51.956;12.980;2024-02-21T09:55:27;6.83;;;2.80;;
29200;SDS011;16244;51.956;12.980;2024-02-21T09:57:58;4.20;;;3.40;;
29200;SDS011;16244;51.956;12.980;2024-02-21T10:00:26;4.97;;;2.97;;
29200;SDS011;16244;51.956;12.980;2024-02-21T10:02:54;3.07;;;2.77;;
29200;SDS011;16244;51.956;12.980;2024-02-21T10:05:21;6.83;;;3.10;;
29200;SDS011;16244;51.956;12.980;2024-02-21T10:07:52;3.00;;;2.70;;
29200;SDS011;16244;51.956;12.980;2024-02-21T10:10:20;9.77;;;3.20;;
29200;SDS011;16244;51.956;12.980;2024-02-21T10:12:48;5.80;;;3.07;;
29200;SDS011;16244;51.956;12.980;2024-02-21T10:15:19;5.10;;;3.37;;
29200;SDS011;16244;51.956;12.980;2024-02-21T10:17:48;10.17;;;2.43;;
29200;SDS011;16244;51.956;12.980;2024-02-21T10:20:16;4.53;;;3.10;;
29200;SDS011;16244;51.956;12.980;2024-02-21T10:22:43;5.13;;;2.90;;
29200;SDS011;16244;51.956;12.980;2024-02-21T10:25:12;8.00;;;3.70;;
29200;SDS011;16244;51.956;12.980;2024-02-21T10:27:40;6.80;;;3.40;;
29200;SDS011;16244;51.956;12.980;2024-02-21T10:30:13;12.23;;;3.20;;
29200;SDS011;16244;51.956;12.980;2024-02-21T10:32:51;3.90;;;3.50;;
29200;SDS011;16244;51.956;12.980;2024-02-21T10:35:29;7.97;;;4.07;;
29200;SDS011;16244;51.956;12.980;2024-02-21T10:37:58;8.30;;;4.10;;
29200;SDS011;16244;51.956;12.980;2024-02-21T10:40:27;5.63;;;2.93;;
29200;SDS011;16244;51.956;12.980;2024-02-21T10:42:57;3.67;;;2.70;;
29200;SDS011;16244;51.956;12.980;2024-02-21T10:45:27;2.47;;;2.30;;
29200;SDS011;16244;51.956;12.980;2024-02-21T10:48:01;3.93;;;3.17;;
29200;SDS011;16244;51.956;12.980;2024-02-21T10:50:41;5.80;;;3.63;;
29200;SDS011;16244;51.956;12.980;2024-02-21T10:53:20;4.70;;;3.20;;
29200;SDS011;16244;51.956;12.980;2024-02-21T10:55:58;4.13;;;3.40;;
29200;SDS011;16244;51.956;12.980;2024-02-21T10:58:34;2.70;;;2.60;;
29200;SDS011;16244;51.956;12.980;2024-02-21T11:01:02;4.17;;;3.83;;
29200;SDS011;16244;51.956;12.980;2024-02-21T11:03:31;6.00;;;3.37;;
29200;SDS011;16244;51.956;12.980;2024-02-21T11:05:59;5.33;;;3.67;;
29200;SDS011;16244;51.956;12.980;2024-02-21T11:08:28;8.33;;;3.20;;
29200;SDS011;16244;51.956;12.980;2024-02-21T11:10:58;3.30;;;2.43;;
29200;SDS011;16244;51.956;12.980;2024-02-21T11:13:30;2.93;;;2.47;;
29200;SDS011;16244;51.956;12.980;2024-02-21T11:16:05;2.30;;;2.20;;
29200;SDS011;16244;51.956;12.980;2024-02-21T11:18:34;2.30;;;2.10;;
29200;SDS011;16244;51.956;12.980;2024-02-21T11:21:02;3.83;;;3.53;;
29200;SDS011;16244;51.956;12.980;2024-02-21T11:23:31;6.37;;;2.57;;
29200;SDS011;16244;51.956;12.980;2024-02-21T11:26:09;4.53;;;3.47;;
29200;SDS011;16244;51.956;12.980;2024-02-21T11:28:37;7.30;;;3.03;;
29200;SDS011;16244;51.956;12.980;2024-02-21T11:31:06;2.63;;;2.43;;
29200;SDS011;16244;51.956;12.980;2024-02-21T11:33:34;3.23;;;2.10;;
29200;SDS011;16244;51.956;12.980;2024-02-21T11:36:02;4.53;;;2.10;;
29200;SDS011;16244;51.956;12.980;2024-02-21T11:38:30;2.50;;;2.30;;
29200;SDS011;16244;51.956;12.980;2024-02-21T11:40:58;3.33;;;2.33;;
29200;SDS011;16244;51.956;12.980;2024-02-21T11:43:27;6.30;;;2.40;;
29200;SDS011;16244;51.956;12.980;2024-02-21T11:46:01;3.57;;;2.83;;
29200;SDS011;16244;51.956;12.980;2024-02-21T11:48:29;3.43;;;2.20;;
29200;SDS011;16244;51.956;12.980;2024-02-21T11:50:57;3.07;;;2.30;;
29200;SDS011;16244;51.956;12.980;2024-02-21T11:53:26;2.80;;;2.17;;
29200;SDS011;16244;51.956;12.980;2024-02-21T11:55:56;4.73;;;2.23;;
29200;SDS011;16244;51.956;12.980;2024-02-21T11:58:24;2.00;;;1.83;;
29200;SDS011;16244;51.956;12.980;2024-02-21T12:00:53;5.10;;;2.80;;
29200;SDS011;16244;51.956;12.980;2024-02-21T12:03:21;2.60;;;2.30;;
29200;SDS011;16244;51.956;12.980;2024-02-21T12:05:49;2.30;;;2.20;;
29200;SDS011;16244;51.956;12.980;2024-02-21T12:08:17;2.03;;;1.93;;
29200;SDS011;16244;51.956;12.980;2024-02-21T12:10:44;8.33;;;2.57;;
29200;SDS011;16244;51.956;12.980;2024-02-21T12:13:16;3.63;;;2.27;;
29200;SDS011;16244;51.956;12.980;2024-02-21T12:15:47;2.40;;;2.30;;
29200;SDS011;16244;51.956;12.980;2024-02-21T12:18:16;2.20;;;1.77;;
29200;SDS011;16244;51.956;12.980;2024-02-21T12:20:46;2.03;;;1.93;;
29200;SDS011;16244;51.956;12.980;2024-02-21T12:23:15;7.00;;;2.13;;
29200;SDS011;16244;51.956;12.980;2024-02-21T12:25:45;4.00;;;2.20;;
29200;SDS011;16244;51.956;12.980;2024-02-21T12:28:12;4.10;;;2.50;;
29200;SDS011;16244;51.956;12.980;2024-02-21T12:30:40;5.37;;;2.50;;
29200;SDS011;16244;51.956;12.980;2024-02-21T12:33:08;1.87;;;1.77;;
29200;SDS011;16244;51.956;12.980;2024-02-21T12:35:37;5.80;;;2.40;;
29200;SDS011;16244;51.956;12.980;2024-02-21T12:38:05;3.93;;;2.10;;
29200;SDS011;16244;51.956;12.980;2024-02-21T12:40:32;5.90;;;1.70;;
29200;SDS011;16244;51.956;12.980;2024-02-21T12:43:01;2.87;;;2.27;;
29200;SDS011;16244;51.956;12.980;2024-02-21T12:45:29;1.93;;;1.83;;
29200;SDS011;16244;51.956;12.980;2024-02-21T12:47:55;2.40;;;1.73;;
29200;SDS011;16244;51.956;12.980;2024-02-21T12:50:23;2.10;;;1.90;;
29200;SDS011;16244;51.956;12.980;2024-02-21T12:52:53;1.70;;;1.70;;
29200;SDS011;16244;51.956;12.980;2024-02-21T12:55:20;4.17;;;1.87;;
29200;SDS011;16244;51.956;12.980;2024-02-21T12:57:48;4.60;;;1.80;;
29200;SDS011;16244;51.956;12.980;2024-02-21T13:00:16;2.60;;;1.33;;
29200;SDS011;16244;51.956;12.980;2024-02-21T13:02:44;4.03;;;2.30;;
29200;SDS011;16244;51.956;12.980;2024-02-21T13:05:12;6.13;;;2.13;;
29200;SDS011;16244;51.956;12.980;2024-02-21T13:07:39;2.23;;;1.90;;
29200;SDS011;16244;51.956;12.980;2024-02-21T13:10:08;4.93;;;2.23;;
29200;SDS011;16244;51.956;12.980;2024-02-21T13:12:36;5.60;;;3.03;;
29200;SDS011;16244;51.956;12.980;2024-02-21T13:15:04;2.43;;;1.70;;
29200;SDS011;16244;51.956;12.980;2024-02-21T13:17:32;2.23;;;2.13;;
29200;SDS011;16244;51.956;12.980;2024-02-21T13:20:00;2.50;;;2.30;;
29200;SDS011;16244;51.956;12.980;2024-02-21T13:22:27;3.00;;;1.60;;
29200;SDS011;16244;51.956;12.980;2024-02-21T13:24:55;6.57;;;1.80;;
29200;SDS011;16244;51.956;12.980;2024-02-21T13:27:24;2.40;;;2.10;;
29200;SDS011;16244;51.956;12.980;2024-02-21T13:29:51;5.40;;;2.80;;
29200;SDS011;16244;51.956;12.980;2024-02-21T13:32:19;4.40;;;2.47;;
29200;SDS011;16244;51.956;12.980;2024-02-21T13:34:47;5.00;;;2.73;;
29200;SDS011;16244;51.956;12.980;2024-02-21T13:37:14;1.67;;;1.60;;
29200;SDS011;16244;51.956;12.980;2024-02-21T13:39:42;4.50;;;1.80;;
29200;SDS011;16244;51.956;12.980;2024-02-21T13:42:10;2.50;;;1.40;;
29200;SDS011;16244;51.956;12.980;2024-02-21T13:44:39;4.10;;;1.50;;
29200;SDS011;16244;51.956;12.980;2024-02-21T13:47:06;1.43;;;1.20;;
29200;SDS011;16244;51.956;12.980;2024-02-21T13:49:34;2.40;;;1.60;;
29200;SDS011;16244;51.956;12.980;2024-02-21T13:52:02;3.60;;;1.70;;
29200;SDS011;16244;51.956;12.980;2024-02-21T13:54:30;7.03;;;2.07;;
29200;SDS011;16244;51.956;12.980;2024-02-21T13:56:58;1.50;;;1.40;;
29200;SDS011;16244;51.956;12.980;2024-02-21T13:59:26;2.60;;;1.17;;
29200;SDS011;16244;51.956;12.980;2024-02-21T14:01:55;5.63;;;1.87;;
29200;SDS011;16244;51.956;12.980;2024-02-21T14:04:22;2.50;;;1.60;;
29200;SDS011;16244;51.956;12.980;2024-02-21T14:06:50;2.47;;;1.10;;
29200;SDS011;16244;51.956;12.980;2024-02-21T14:09:19;5.17;;;2.80;;
29200;SDS011;16244;51.956;12.980;2024-02-21T14:11:46;2.00;;;1.17;;
29200;SDS011;16244;51.956;12.980;2024-02-21T14:14:13;2.43;;;1.43;;
29200;SDS011;16244;51.956;12.980;2024-02-21T14:16:42;1.00;;;1.00;;
29200;SDS011;16244;51.956;12.980;2024-02-21T14:19:12;6.70;;;1.40;;
29200;SDS011;16244;51.956;12.980;2024-02-21T14:21:39;5.10;;;0.90;;
29200;SDS011;16244;51.956;12.980;2024-02-21T14:24:06;2.90;;;0.80;;
29200;SDS011;16244;51.956;12.980;2024-02-21T14:26:34;9.40;;;0.90;;
29200;SDS011;16244;51.956;12.980;2024-02-21T14:29:02;3.70;;;1.00;;
29200;SDS011;16244;51.956;12.980;2024-02-21T14:31:30;1.77;;;1.17;;
29200;SDS011;16244;51.956;12.980;2024-02-21T14:33:59;0.70;;;0.70;;
29200;SDS011;16244;51.956;12.980;2024-02-21T14:36:29;2.00;;;0.90;;
29200;SDS011;16244;51.956;12.980;2024-02-21T14:38:57;1.03;;;0.80;;